Rocky Ridge, Missouri
Current Conditions -  °F | °C
As of 12:15 PM on Sunday 25 Jan 2015 (Local Time) from KSAR Reporting Station
Overcast Overcast  
Wind Chill: 42°   Ceiling: 1300
Heat Index: 42°   Visibility: 10mi
Dew Point: 41°   Wind: 0mph
Humidity: 95%   Direction: NA
Pressure: 29.59"   Gusts: NA
Location:  37.9762°N, 90.0499°W
Report Text: KSAR 251815Z AUTO 00000KT 10SM OVC013 06/05 A2959 RMK AO2 T00570050
Loading
Personal Weather Stations






























Interactive Weather Map New forecast layout! Learn more

10-Day Weather Forecast

Advertisements
Track Severe Weather on mobile